createdAt,value
2024-01-16T00:02:20.601Z,90.93
2024-01-16T00:04:50.076Z,91.52
2024-01-16T00:07:18.188Z,91.67
2024-01-16T00:09:46.859Z,92.20
2024-01-16T00:12:15.293Z,92.50
2024-01-16T00:14:43.392Z,92.26
2024-01-16T00:17:12.696Z,92.91
2024-01-16T00:19:40.785Z,92.23
2024-01-16T00:22:10.296Z,91.97
2024-01-16T00:24:38.354Z,91.86
2024-01-16T00:27:09.825Z,92.50
2024-01-16T00:29:40.226Z,92.83
2024-01-16T00:32:08.397Z,92.41
2024-01-16T00:34:36.584Z,93.11
2024-01-16T00:37:04.703Z,93.14
2024-01-16T00:39:34.476Z,92.93
2024-01-16T00:42:03.248Z,93.15
2024-01-16T00:44:31.299Z,93.80
2024-01-16T00:46:59.363Z,93.18
2024-01-16T00:49:27.428Z,93.62
2024-01-16T00:51:55.705Z,93.45
2024-01-16T00:54:23.746Z,93.38
2024-01-16T00:56:56.580Z,93.36
2024-01-16T00:59:24.655Z,93.18
2024-01-16T01:01:52.926Z,93.83
2024-01-16T01:04:21.018Z,93.43
2024-01-16T01:06:49.067Z,93.33
2024-01-16T01:09:17.096Z,93.93
2024-01-16T01:11:45.473Z,93.30
2024-01-16T01:14:15.186Z,93.40
2024-01-16T01:16:43.319Z,93.83
2024-01-16T01:19:11.455Z,93.90
2024-01-16T01:21:39.515Z,94.06
2024-01-16T01:24:07.542Z,93.87
2024-01-16T01:26:35.641Z,93.83
2024-01-16T01:29:03.836Z,94.03
2024-01-16T01:31:33.385Z,93.65
2024-01-16T01:34:01.582Z,93.72
2024-01-16T01:36:29.678Z,93.67
2024-01-16T01:38:57.695Z,93.83
2024-01-16T01:41:25.800Z,94.04
2024-01-16T01:43:53.881Z,93.87
2024-01-16T01:46:22.063Z,94.00
2024-01-16T01:48:52.518Z,94.24
2024-01-16T01:51:21.164Z,94.13
2024-01-16T01:53:51.428Z,93.99
2024-01-16T01:56:20.596Z,93.63
2024-01-16T01:58:50.703Z,94.15
2024-01-16T02:01:20.287Z,94.09
2024-01-16T02:03:49.259Z,93.54
2024-01-16T02:06:18.912Z,94.15
2024-01-16T02:08:47.598Z,93.81
2024-01-16T02:11:16.162Z,93.86
2024-01-16T02:13:44.277Z,93.87
2024-01-16T02:16:21.177Z,94.27
2024-01-16T02:18:49.256Z,93.91
2024-01-16T02:21:21.568Z,93.74
2024-01-16T02:23:51.306Z,93.91
2024-01-16T02:26:20.982Z,94.01
2024-01-16T02:28:49.058Z,93.69
2024-01-16T02:31:19.144Z,93.62
2024-01-16T02:33:47.370Z,93.62
2024-01-16T02:36:15.456Z,94.09
2024-01-16T02:38:46.396Z,94.11
2024-01-16T02:41:19.210Z,94.22
2024-01-16T02:43:47.691Z,93.74
2024-01-16T02:46:15.785Z,94.31
2024-01-16T02:48:44.784Z,94.27
2024-01-16T02:51:13.068Z,93.77
2024-01-16T02:53:41.289Z,93.94
2024-01-16T02:56:10.877Z,93.92
2024-01-16T02:58:40.559Z,94.11
2024-01-16T03:01:08.737Z,94.13
2024-01-16T03:03:37.274Z,93.92
2024-01-16T03:06:05.874Z,94.44
2024-01-16T03:08:34.029Z,94.12
2024-01-16T03:11:02.177Z,94.06
2024-01-16T03:13:30.206Z,94.01
2024-01-16T03:15:59.615Z,94.18
2024-01-16T03:18:27.869Z,93.99
2024-01-16T03:20:56.040Z,94.57
2024-01-16T03:23:24.123Z,94.54
2024-01-16T03:25:52.182Z,94.23
2024-01-16T03:28:20.216Z,94.05
2024-01-16T03:30:48.618Z,94.22
2024-01-16T03:33:18.318Z,94.31
2024-01-16T03:35:46.630Z,94.17
2024-01-16T03:38:14.756Z,94.04
2024-01-16T03:40:42.836Z,94.27
2024-01-16T03:43:10.882Z,93.96
2024-01-16T03:45:38.920Z,94.13
2024-01-16T03:48:07.943Z,93.64
2024-01-16T03:50:37.636Z,93.85
2024-01-16T03:53:06.217Z,93.95
2024-01-16T03:55:34.487Z,93.41
2024-01-16T03:58:02.540Z,93.77
2024-01-16T04:00:30.749Z,93.79
2024-01-16T04:02:58.836Z,93.76
2024-01-16T04:05:26.992Z,93.58
2024-01-16T04:07:56.460Z,94.01
2024-01-16T04:10:24.527Z,93.90
2024-01-16T04:12:52.558Z,94.03
2024-01-16T04:15:23.509Z,93.81
2024-01-16T04:17:51.986Z,93.87
2024-01-16T04:20:20.176Z,93.58
2024-01-16T04:22:48.266Z,93.05
2024-01-16T04:25:17.819Z,93.92
2024-01-16T04:27:45.873Z,93.20
2024-01-16T04:30:15.001Z,93.86
2024-01-16T04:32:43.380Z,93.64
2024-01-16T04:35:11.834Z,93.60
2024-01-16T04:37:39.959Z,93.58
2024-01-16T04:40:08.724Z,93.02
2024-01-16T04:42:38.145Z,92.97
2024-01-16T04:45:07.391Z,93.27
2024-01-16T04:47:35.556Z,93.24
2024-01-16T04:50:04.971Z,93.37
2024-01-16T04:52:33.223Z,93.48
2024-01-16T04:55:01.329Z,93.27
2024-01-16T04:57:29.413Z,93.78
2024-01-16T04:59:58.914Z,93.36
2024-01-16T05:02:27.028Z,93.57
2024-01-16T05:04:55.145Z,93.18
2024-01-16T05:07:25.926Z,93.57
2024-01-16T05:09:54.890Z,93.12
2024-01-16T05:12:23.843Z,93.22
2024-01-16T05:14:51.971Z,93.29
2024-01-16T05:17:21.517Z,93.09
2024-01-16T05:19:49.605Z,93.07
2024-01-16T05:22:17.683Z,92.88
2024-01-16T05:24:45.895Z,92.95
2024-01-16T05:27:14.042Z,92.91
2024-01-16T05:29:44.689Z,93.42
2024-01-16T05:32:13.556Z,93.34
2024-01-16T05:34:43.215Z,93.10
2024-01-16T05:37:11.805Z,93.03
2024-01-16T05:39:39.815Z,92.97
2024-01-16T05:42:07.914Z,92.82
2024-01-16T05:44:36.075Z,92.62
2024-01-16T05:47:04.792Z,92.78
2024-01-16T05:49:33.032Z,93.06
2024-01-16T05:52:02.534Z,92.64
2024-01-16T05:54:30.710Z,92.86
2024-01-16T05:56:58.787Z,93.35
2024-01-16T05:59:26.930Z,92.94
2024-01-16T06:01:54.969Z,92.86
2024-01-16T06:04:23.079Z,93.33
2024-01-16T06:06:51.351Z,92.55
2024-01-16T06:09:20.853Z,92.80
2024-01-16T06:11:49.268Z,92.46
2024-01-16T06:14:22.694Z,93.05
2024-01-16T06:16:52.137Z,92.92
2024-01-16T06:19:20.279Z,92.90
2024-01-16T06:21:48.390Z,92.99
2024-01-16T06:24:16.462Z,92.69
2024-01-16T06:26:45.925Z,92.97
2024-01-16T06:29:21.606Z,93.06
2024-01-16T06:31:56.601Z,92.81
2024-01-16T06:34:24.744Z,92.91
2024-01-16T06:36:52.870Z,92.65
2024-01-16T06:39:20.928Z,92.38
2024-01-16T06:41:50.703Z,92.12
2024-01-16T06:44:18.842Z,92.81
2024-01-16T06:46:46.980Z,92.62
2024-01-16T06:49:15.172Z,92.67
2024-01-16T06:51:43.295Z,92.45
2024-01-16T06:54:11.360Z,91.87
2024-01-16T06:56:39.454Z,92.49
2024-01-16T06:59:11.270Z,92.23
2024-01-16T07:01:40.229Z,92.38
2024-01-16T07:04:08.297Z,92.06
2024-01-16T07:06:36.378Z,91.86
2024-01-16T07:09:06.425Z,92.14
2024-01-16T07:11:34.594Z,92.10
2024-01-16T07:14:02.765Z,92.70
2024-01-16T07:16:32.207Z,92.19
2024-01-16T07:19:00.830Z,92.55
2024-01-16T07:21:29.140Z,91.98
2024-01-16T07:23:57.751Z,92.29
2024-01-16T07:26:26.408Z,92.64
2024-01-16T07:28:54.540Z,92.03
2024-01-16T07:31:22.593Z,92.02
2024-01-16T07:33:52.179Z,92.62
2024-01-16T07:36:20.346Z,92.10
2024-01-16T07:38:49.158Z,92.53
2024-01-16T07:41:17.284Z,91.90
2024-01-16T07:43:48.272Z,92.23
2024-01-16T07:46:18.941Z,92.04
2024-01-16T07:48:47.249Z,91.97
2024-01-16T07:51:16.784Z,91.92
2024-01-16T07:53:44.946Z,91.46
2024-01-16T07:56:13.601Z,92.33
2024-01-16T07:58:41.705Z,91.73
2024-01-16T08:01:09.815Z,91.49
2024-01-16T08:03:37.987Z,91.83
2024-01-16T08:06:07.329Z,91.48
2024-01-16T08:08:36.925Z,91.71
2024-01-16T08:11:05.253Z,91.91
2024-01-16T08:13:33.316Z,91.49
2024-01-16T08:16:01.423Z,91.50
2024-01-16T08:18:29.600Z,91.38
2024-01-16T08:20:57.794Z,91.22
2024-01-16T08:23:25.993Z,91.56
2024-01-16T08:25:55.438Z,91.06
2024-01-16T08:28:25.306Z,91.36
2024-01-16T08:30:53.432Z,91.33
2024-01-16T08:33:28.099Z,91.47
2024-01-16T08:36:02.415Z,90.66
2024-01-16T08:38:30.573Z,91.36
2024-01-16T08:41:00.180Z,91.01
2024-01-16T08:43:28.319Z,90.43
2024-01-16T08:45:56.805Z,90.72
2024-01-16T08:48:25.096Z,90.96
2024-01-16T08:50:53.363Z,90.19
2024-01-16T08:53:21.437Z,90.06
2024-01-16T08:55:49.793Z,90.59
2024-01-16T08:58:19.207Z,90.52
2024-01-16T09:00:47.264Z,90.16
2024-01-16T09:03:15.320Z,90.23
2024-01-16T09:05:44.584Z,89.59
2024-01-16T09:08:13.959Z,90.05
2024-01-16T09:10:42.357Z,90.54
2024-01-16T09:13:10.394Z,89.77
2024-01-16T09:15:40.858Z,89.83
2024-01-16T09:18:09.057Z,89.50
2024-01-16T09:20:37.805Z,89.30
2024-01-16T09:23:05.935Z,89.77
2024-01-16T09:25:33.972Z,89.07
2024-01-16T09:28:01.995Z,89.11
2024-01-16T09:30:30.114Z,89.39
2024-01-16T09:32:59.600Z,88.93
2024-01-16T09:35:27.763Z,89.18
2024-01-16T09:37:55.824Z,88.93
2024-01-16T09:40:23.874Z,89.27
2024-01-16T09:42:52.037Z,88.66
2024-01-16T09:45:23.031Z,88.88
2024-01-16T09:47:52.945Z,88.79
2024-01-16T09:50:23.260Z,88.74
2024-01-16T09:52:51.388Z,88.94
2024-01-16T09:55:19.646Z,88.57
2024-01-16T09:57:48.254Z,88.63
2024-01-16T10:00:17.707Z,88.37
2024-01-16T10:02:45.863Z,88.47
2024-01-16T10:05:15.123Z,88.92
2024-01-16T10:07:46.133Z,88.75
2024-01-16T10:10:15.342Z,88.63
2024-01-16T10:12:46.251Z,88.56
2024-01-16T10:15:16.630Z,88.75
2024-01-16T10:17:45.235Z,88.37
2024-01-16T10:20:15.562Z,87.97
2024-01-16T10:22:54.730Z,88.51
2024-01-16T10:25:23.791Z,88.28
2024-01-16T10:27:51.888Z,88.29
2024-01-16T10:30:23.993Z,87.44
2024-01-16T10:32:52.291Z,87.99
2024-01-16T10:35:22.072Z,87.60
2024-01-16T10:37:53.524Z,87.72
2024-01-16T10:40:24.579Z,87.98
2024-01-16T10:43:01.531Z,87.43
2024-01-16T10:45:30.099Z,87.68
2024-01-16T10:48:04.659Z,87.78
2024-01-16T10:50:33.384Z,87.64
2024-01-16T10:53:06.237Z,88.32
2024-01-16T10:55:44.837Z,88.13
2024-01-16T10:58:14.631Z,88.24
2024-01-16T11:00:44.818Z,87.50
2024-01-16T11:03:18.554Z,87.76
2024-01-16T11:05:47.069Z,87.22
2024-01-16T11:08:18.368Z,86.95
2024-01-16T11:10:47.395Z,86.56
2024-01-16T11:13:15.832Z,86.56
2024-01-16T11:15:44.640Z,86.58
2024-01-16T11:18:13.107Z,86.96
2024-01-16T11:21:01.764Z,86.73
2024-01-16T11:23:33.517Z,87.01
2024-01-16T11:26:01.572Z,87.08
2024-01-16T11:28:31.925Z,86.79
2024-01-16T11:31:00.515Z,86.91
2024-01-16T11:33:47.597Z,87.42
2024-01-16T11:36:55.636Z,87.32
2024-01-16T11:39:26.754Z,87.08
2024-01-16T11:41:56.370Z,86.93
2024-01-16T11:44:44.598Z,86.88
2024-01-16T11:47:18.596Z,87.04
2024-01-16T11:49:46.767Z,87.57
2024-01-16T11:52:15.106Z,87.56
2024-01-16T11:54:44.904Z,87.38
2024-01-16T11:57:38.980Z,87.94
2024-01-16T12:00:14.094Z,87.86
2024-01-16T12:02:55.424Z,87.58
2024-01-16T12:05:23.714Z,87.66
2024-01-16T12:07:53.747Z,87.72
2024-01-16T12:10:24.477Z,87.76
2024-01-16T12:12:53.560Z,88.00
2024-01-16T12:15:22.369Z,87.71
2024-01-16T12:17:57.861Z,87.84
2024-01-16T12:20:27.231Z,87.85
2024-01-16T12:22:57.124Z,88.02
2024-01-16T12:25:59.379Z,87.34
2024-01-16T12:28:28.053Z,87.09
2024-01-16T12:31:01.586Z,87.47
2024-01-16T12:33:30.396Z,87.52
2024-01-16T12:36:04.180Z,87.82
2024-01-16T12:38:32.801Z,87.62
2024-01-16T12:41:03.780Z,87.61
2024-01-16T12:43:33.949Z,88.23
2024-01-16T12:46:02.146Z,88.13
2024-01-16T12:48:30.512Z,87.92
2024-01-16T12:51:02.351Z,88.11
2024-01-16T12:53:30.931Z,88.16
2024-01-16T12:56:04.880Z,87.88
2024-01-16T12:58:36.752Z,87.62
2024-01-16T13:01:34.239Z,88.26
2024-01-16T13:04:07.536Z,88.12
2024-01-16T13:06:35.991Z,88.87
2024-01-16T13:09:12.031Z,88.71
2024-01-16T13:11:53.952Z,88.63
2024-01-16T13:14:23.304Z,88.99
2024-01-16T13:16:51.722Z,88.56
2024-01-16T13:19:20.882Z,89.17
2024-01-16T13:21:49.535Z,88.80
2024-01-16T13:24:18.690Z,88.59
2024-01-16T13:26:46.938Z,89.25
2024-01-16T13:29:16.927Z,89.04
2024-01-16T13:31:45.437Z,88.91
2024-01-16T13:34:14.178Z,89.24
2024-01-16T13:36:54.720Z,89.22
2024-01-16T13:39:33.682Z,89.34
2024-01-16T13:42:01.714Z,89.01
2024-01-16T13:44:31.184Z,88.87
2024-01-16T13:47:07.016Z,88.71
2024-01-16T13:49:38.764Z,89.21
2024-01-16T13:52:07.505Z,89.24
2024-01-16T13:54:39.468Z,89.08
2024-01-16T13:57:09.416Z,88.95
2024-01-16T13:59:40.114Z,89.36
2024-01-16T14:02:09.653Z,89.03
2024-01-16T14:04:38.148Z,88.76
2024-01-16T14:09:38.074Z,88.96
2024-01-16T14:12:09.843Z,88.96
2024-01-16T14:14:40.529Z,88.88
2024-01-16T14:17:08.627Z,89.39
2024-01-16T14:19:37.051Z,88.63
2024-01-16T14:22:05.620Z,89.02
2024-01-16T14:24:33.774Z,89.08
2024-01-16T14:27:01.789Z,89.34
2024-01-16T14:29:30.718Z,89.51
2024-01-16T14:32:00.260Z,88.92
2024-01-16T14:34:29.173Z,89.29
2024-01-16T14:36:57.257Z,89.35
2024-01-16T14:39:27.666Z,89.36
2024-01-16T14:41:56.269Z,88.96
2024-01-16T14:44:24.441Z,89.13
2024-01-16T14:46:55.405Z,88.99
2024-01-16T14:49:25.055Z,88.70
2024-01-16T14:51:53.273Z,89.15
2024-01-16T14:54:21.383Z,89.42
2024-01-16T14:56:49.967Z,89.30
2024-01-16T14:59:19.297Z,89.65
2024-01-16T15:01:47.652Z,89.74
2024-01-16T15:04:16.020Z,89.61
2024-01-16T15:06:45.736Z,89.06
2024-01-16T15:09:14.511Z,89.38
2024-01-16T15:11:44.095Z,89.81
2024-01-16T15:14:14.032Z,89.76
2024-01-16T15:16:42.158Z,90.00
2024-01-16T15:19:10.289Z,89.47
2024-01-16T15:21:40.761Z,90.31
2024-01-16T15:24:10.397Z,90.15
2024-01-16T15:26:38.560Z,90.25
2024-01-16T15:29:07.627Z,90.05
2024-01-16T15:31:35.667Z,89.63
2024-01-16T15:34:03.766Z,89.96
2024-01-16T15:36:31.821Z,90.16
2024-01-16T15:38:59.893Z,90.10
2024-01-16T15:41:29.369Z,90.21
2024-01-16T15:43:58.238Z,90.14
2024-01-16T15:46:29.887Z,89.89
2024-01-16T15:48:58.299Z,90.78
2024-01-16T15:51:26.321Z,90.12
2024-01-16T15:53:54.419Z,90.42
2024-01-16T15:56:22.503Z,90.68
2024-01-16T15:58:51.921Z,90.47
2024-01-16T16:01:19.986Z,90.20
2024-01-16T16:03:48.228Z,90.40
2024-01-16T16:06:16.359Z,89.96
2024-01-16T16:08:44.573Z,90.11
2024-01-16T16:11:12.830Z,89.94
2024-01-16T16:13:40.838Z,90.55
2024-01-16T16:16:10.264Z,89.90
2024-01-16T16:18:38.747Z,90.45
2024-01-16T16:21:07.053Z,90.39
2024-01-16T16:23:35.106Z,89.93
2024-01-16T16:26:03.166Z,89.86
2024-01-16T16:28:31.214Z,90.10
2024-01-16T16:30:59.321Z,90.36
2024-01-16T16:33:28.888Z,89.90
2024-01-16T16:35:56.978Z,90.26
2024-01-16T16:38:25.117Z,90.36
2024-01-16T16:40:53.153Z,90.24
2024-01-16T16:43:21.168Z,90.64
2024-01-16T16:45:50.405Z,90.13
2024-01-16T16:48:18.583Z,90.75
2024-01-16T16:50:48.133Z,90.44
2024-01-16T16:53:16.261Z,90.21
2024-01-16T16:55:44.321Z,90.26
2024-01-16T16:58:13.430Z,90.58
2024-01-16T17:00:43.774Z,90.52
2024-01-16T17:03:11.999Z,90.62
2024-01-16T17:05:40.800Z,90.38
2024-01-16T17:08:12.260Z,90.87
2024-01-16T17:10:40.238Z,90.76
2024-01-16T17:13:08.271Z,91.06
2024-01-16T17:15:36.329Z,90.89
2024-01-16T17:18:05.133Z,90.99
2024-01-16T17:20:33.410Z,91.26
2024-01-16T17:23:01.496Z,90.93
2024-01-16T17:25:31.294Z,91.06
2024-01-16T17:27:59.523Z,91.02
2024-01-16T17:30:27.585Z,91.14
2024-01-16T17:32:55.705Z,91.12
2024-01-16T17:35:25.213Z,90.58
2024-01-16T17:37:53.786Z,90.56
2024-01-16T17:40:21.851Z,90.76
2024-01-16T17:42:51.285Z,90.42
2024-01-16T17:45:19.638Z,90.35
2024-01-16T17:47:48.198Z,90.77
2024-01-16T17:50:16.405Z,91.04
2024-01-16T17:52:44.473Z,90.28
2024-01-16T17:55:13.010Z,90.76
2024-01-16T17:57:42.064Z,90.51
2024-01-16T18:00:12.899Z,90.46
2024-01-16T18:02:41.562Z,90.37
2024-01-16T18:05:11.534Z,90.57
2024-01-16T18:07:39.757Z,90.33
2024-01-16T18:10:10.264Z,90.41
2024-01-16T18:12:39.257Z,90.30
2024-01-16T18:15:09.832Z,90.40
2024-01-16T18:17:39.399Z,90.52
2024-01-16T18:20:11.065Z,90.16
2024-01-16T18:22:39.308Z,90.63
2024-01-16T18:25:09.861Z,90.28
2024-01-16T18:27:38.302Z,90.60
2024-01-16T18:30:07.974Z,90.28
2024-01-16T18:32:36.242Z,89.55
2024-01-16T18:35:09.728Z,89.76
2024-01-16T18:37:38.518Z,89.69
2024-01-16T18:40:10.041Z,89.64
2024-01-16T18:42:38.151Z,89.53
2024-01-16T18:45:09.488Z,89.20
2024-01-16T18:47:38.305Z,89.55
2024-01-16T18:50:10.983Z,89.55
2024-01-16T18:52:41.220Z,89.84
2024-01-16T18:55:13.495Z,89.50
2024-01-16T18:57:41.945Z,89.82
2024-01-16T19:00:15.270Z,89.61
2024-01-16T19:02:44.272Z,89.62
2024-01-16T19:05:14.425Z,89.42
2024-01-16T19:07:42.875Z,89.39
2024-01-16T19:10:13.884Z,89.02
2024-01-16T19:12:43.628Z,89.25
2024-01-16T19:15:16.368Z,89.03
2024-01-16T19:17:44.553Z,88.73
2024-01-16T19:20:14.398Z,89.09
2024-01-16T19:22:42.995Z,88.74
2024-01-16T19:25:12.841Z,88.94
2024-01-16T19:27:42.003Z,88.98
2024-01-16T19:30:15.195Z,89.49
2024-01-16T19:32:44.105Z,88.94
2024-01-16T19:35:13.386Z,89.07
2024-01-16T19:37:42.227Z,89.09
2024-01-16T19:40:13.576Z,88.62
2024-01-16T19:42:42.493Z,89.23
2024-01-16T19:45:12.569Z,89.58
2024-01-16T19:47:43.397Z,89.19
2024-01-16T19:50:22.700Z,89.07
2024-01-16T19:52:52.851Z,88.84
2024-01-16T19:55:23.107Z,88.69
2024-01-16T19:57:51.801Z,88.74
2024-01-16T20:00:20.913Z,88.30
2024-01-16T20:02:49.185Z,88.99
2024-01-16T20:05:18.820Z,89.42
2024-01-16T20:07:47.212Z,88.79
2024-01-16T20:10:16.860Z,88.70
2024-01-16T20:12:46.638Z,88.90
2024-01-16T20:15:16.500Z,89.51
2024-01-16T20:17:45.527Z,89.42
2024-01-16T20:20:15.089Z,89.57
2024-01-16T20:22:45.130Z,89.55
2024-01-16T20:25:14.559Z,90.03
2024-01-16T20:27:42.745Z,88.76
2024-01-16T20:30:12.453Z,88.95
2024-01-16T20:32:42.536Z,88.58
2024-01-16T20:35:11.063Z,88.67
2024-01-16T20:37:39.146Z,89.07
2024-01-16T20:40:11.206Z,89.23
2024-01-16T20:42:39.671Z,89.50
2024-01-16T20:45:10.134Z,89.09
2024-01-16T20:47:39.360Z,88.91
2024-01-16T20:50:10.366Z,88.95
2024-01-16T20:52:38.472Z,88.64
2024-01-16T20:55:09.290Z,88.46
2024-01-16T20:57:37.727Z,88.64
2024-01-16T21:00:14.362Z,88.42
2024-01-16T21:02:43.422Z,88.57
2024-01-16T21:05:12.172Z,88.92
2024-01-16T21:07:40.705Z,89.18
2024-01-16T21:10:11.047Z,89.45
2024-01-16T21:12:39.325Z,88.76
2024-01-16T21:15:08.453Z,88.98
2024-01-16T21:17:36.656Z,88.90
2024-01-16T21:20:07.190Z,88.52
2024-01-16T21:22:36.992Z,88.32
2024-01-16T21:25:07.123Z,88.41
2024-01-16T21:27:38.449Z,89.22
2024-01-16T21:30:09.417Z,88.00
2024-01-16T21:32:38.027Z,88.76
2024-01-16T21:35:07.761Z,87.97
2024-01-16T21:37:35.854Z,88.94
2024-01-16T21:40:06.325Z,88.46
2024-01-16T21:42:35.808Z,88.22
2024-01-16T21:45:06.660Z,88.58
2024-01-16T21:47:34.963Z,88.46
2024-01-16T21:50:06.980Z,89.02
2024-01-16T21:52:35.913Z,89.60
2024-01-16T21:55:04.034Z,88.50
2024-01-16T21:57:33.412Z,89.38
2024-01-16T22:00:03.825Z,88.61
2024-01-16T22:02:35.202Z,89.61
2024-01-16T22:05:03.365Z,89.43
2024-01-16T22:07:31.481Z,89.19
2024-01-16T22:09:59.792Z,89.54
2024-01-16T22:12:27.858Z,88.61
2024-01-16T22:14:57.285Z,89.30
2024-01-16T22:17:30.033Z,89.60
2024-01-16T22:19:59.780Z,89.44
2024-01-16T22:22:27.869Z,89.91
2024-01-16T22:24:55.908Z,88.75
2024-01-16T22:27:23.973Z,89.70
2024-01-16T22:29:52.081Z,89.77
2024-01-16T22:32:22.176Z,89.93
2024-01-16T22:34:50.207Z,89.93
2024-01-16T22:37:20.804Z,89.35
2024-01-16T22:39:48.879Z,89.77
2024-01-16T22:42:18.418Z,89.59
2024-01-16T22:44:47.888Z,88.25
2024-01-16T22:47:16.113Z,88.60
2024-01-16T22:49:44.268Z,89.61
2024-01-16T22:52:12.326Z,88.98
2024-01-16T22:54:41.994Z,89.89
2024-01-16T22:57:10.076Z,88.93
2024-01-16T22:59:38.207Z,89.19
2024-01-16T23:02:07.297Z,88.48
2024-01-16T23:04:35.510Z,88.02
2024-01-16T23:07:03.656Z,87.92
2024-01-16T23:09:34.152Z,88.89
2024-01-16T23:12:03.845Z,88.98
2024-01-16T23:14:32.231Z,88.47
2024-01-16T23:17:00.260Z,89.07
2024-01-16T23:19:28.364Z,89.10
2024-01-16T23:21:56.411Z,88.45
2024-01-16T23:24:24.479Z,89.19
2024-01-16T23:26:52.604Z,88.63
2024-01-16T23:29:22.219Z,88.38
2024-01-16T23:31:50.280Z,88.92
2024-01-16T23:34:19.226Z,88.83
2024-01-16T23:36:47.369Z,88.60
2024-01-16T23:39:16.755Z,89.01
2024-01-16T23:41:46.154Z,88.97
2024-01-16T23:44:14.564Z,88.81
2024-01-16T23:46:44.133Z,89.11
2024-01-16T23:49:12.212Z,88.99
2024-01-16T23:51:40.245Z,89.24
2024-01-16T23:54:08.365Z,88.65
2024-01-16T23:56:36.797Z,88.41
2024-01-16T23:59:04.840Z,88.58
